Time;durP1;ratioP1;P1;durP2;ratioP2;P2;SDS_P1;SDS_P2;PMS_P1;PMS_P2;Temp;Humidity;BMP_temperature;BMP_pressure;BME280_temperature;BME280_humidity;BME280_pressure;Samples;Min_cycle;Max_cycle;Signal;HPM_P1;HPM_P2
2023/06/13 06:42:00;;;;;;;4.70;3.05;;;27.10;87.00;;;;;;4943915;23;20711;-72
2023/06/13 06:44:27;;;;;;;7.57;3.35;;;27.70;87.40;;;;;;4918050;29;20213;-74
2023/06/13 06:46:54;;;;;;;4.88;3.55;;;28.20;87.00;;;;;;4929257;29;20212;-74
2023/06/13 06:49:20;;;;;;;5.50;3.42;;;29.00;85.30;;;;;;4909958;29;20247;-72
2023/06/13 06:51:48;;;;;;;6.32;3.45;;;29.00;84.30;;;;;;4901452;29;20225;-75
2023/06/13 06:54:15;;;;;;;5.10;3.17;;;28.90;84.10;;;;;;4897251;29;20638;-72
2023/06/13 06:56:41;;;;;;;6.32;3.35;;;29.40;83.50;;;;;;4898643;29;20220;-72
2023/06/13 06:59:10;;;;;;;4.10;3.33;;;29.20;82.20;;;;;;4912655;29;20233;-72
2023/06/13 07:01:36;;;;;;;4.47;3.28;;;28.80;84.10;;;;;;4917678;29;20209;-70
2023/06/13 07:04:03;;;;;;;4.53;3.35;;;28.50;84.70;;;;;;4917672;29;20214;-71
2023/06/13 07:06:31;;;;;;;4.95;3.40;;;28.30;84.40;;;;;;4917269;29;20208;-71
2023/06/13 07:08:58;;;;;;;4.72;3.17;;;29.00;84.90;;;;;;4916984;29;20237;-74
2023/06/13 07:11:24;;;;;;;6.47;3.10;;;29.20;84.10;;;;;;4917771;29;20219;-73
2023/06/13 07:13:51;;;;;;;3.58;3.05;;;29.90;84.10;;;;;;4917216;29;20220;-72
2023/06/13 07:16:19;;;;;;;3.85;2.95;;;29.90;83.80;;;;;;4917379;29;20244;-73
2023/06/13 07:18:46;;;;;;;5.45;3.10;;;30.30;84.70;;;;;;4917609;29;20243;-75
2023/06/13 07:21:13;;;;;;;6.32;3.55;;;30.80;83.30;;;;;;4917445;29;20209;-73
2023/06/13 07:23:40;;;;;;;3.55;2.97;;;30.90;83.10;;;;;;4917387;29;20213;-74
2023/06/13 07:26:07;;;;;;;3.90;2.65;;;31.00;82.40;;;;;;4917079;29;20209;-71
2023/06/13 07:28:34;;;;;;;6.50;3.22;;;31.10;80.90;;;;;;4917130;29;20249;-71
2023/06/13 07:31:01;;;;;;;5.05;2.95;;;30.10;81.40;;;;;;4917345;29;20209;-73
2023/06/13 07:33:30;;;;;;;6.45;3.28;;;30.10;81.60;;;;;;4916964;29;20241;-74
2023/06/13 07:35:57;;;;;;;4.53;2.95;;;29.70;81.10;;;;;;4917222;29;20214;-74
2023/06/13 07:38:24;;;;;;;5.03;2.70;;;29.40;81.90;;;;;;4917252;29;20229;-74
2023/06/13 07:40:51;;;;;;;4.32;2.97;;;29.40;83.20;;;;;;4916847;29;20222;-74
2023/06/13 07:43:18;;;;;;;4.80;2.80;;;29.60;82.40;;;;;;4917201;29;20209;-74
2023/06/13 07:45:46;;;;;;;5.07;2.97;;;30.10;82.30;;;;;;4917054;29;20209;-75
2023/06/13 07:48:13;;;;;;;4.47;2.92;;;30.50;80.30;;;;;;4916668;29;20226;-73
2023/06/13 07:50:42;;;;;;;2.78;2.33;;;30.60;81.20;;;;;;4917096;29;20210;-75
2023/06/13 07:53:09;;;;;;;4.70;2.92;;;30.00;81.40;;;;;;4916992;29;20212;-75
2023/06/13 07:55:36;;;;;;;3.40;2.50;;;30.10;82.10;;;;;;4916730;29;20238;-74
2023/06/13 07:58:03;;;;;;;4.95;2.80;;;29.80;80.90;;;;;;4916649;29;20241;-74
2023/06/13 08:00:30;;;;;;;3.80;2.65;;;30.10;81.40;;;;;;4916923;29;20300;-74
2023/06/13 08:02:57;;;;;;;3.33;2.70;;;30.40;81.50;;;;;;4917016;29;20218;-74
2023/06/13 08:05:26;;;;;;;3.33;2.65;;;31.10;80.70;;;;;;4916941;29;20724;-74
2023/06/13 08:07:55;;;;;;;7.35;2.90;;;31.80;78.90;;;;;;4916257;29;20233;-72
2023/06/13 08:10:22;;;;;;;4.68;2.90;;;31.60;77.60;;;;;;4915997;29;20241;-74
2023/06/13 08:12:49;;;;;;;3.90;2.58;;;31.60;79.20;;;;;;4916555;29;20214;-74
2023/06/13 08:15:16;;;;;;;5.53;2.78;;;31.30;78.70;;;;;;4916173;29;20672;-73
2023/06/13 08:17:43;;;;;;;4.10;2.50;;;31.50;78.40;;;;;;4916184;29;20234;-71
2023/06/13 08:20:10;;;;;;;4.55;2.55;;;31.50;77.10;;;;;;4916412;29;20209;-71
2023/06/13 08:22:39;;;;;;;3.90;2.70;;;31.30;76.80;;;;;;4916579;29;20213;-71
2023/06/13 08:25:08;;;;;;;4.15;2.85;;;31.50;74.90;;;;;;4916858;29;20210;-71
2023/06/13 08:27:36;;;;;;;6.00;3.15;;;32.00;76.30;;;;;;4916276;29;20317;-71
2023/06/13 08:30:04;;;;;;;4.15;3.10;;;32.30;75.60;;;;;;4916276;29;20269;-72
2023/06/13 08:32:32;;;;;;;2.67;2.40;;;32.30;74.40;;;;;;4916098;29;20213;-71
2023/06/13 08:34:59;;;;;;;4.63;2.80;;;32.90;73.40;;;;;;4916661;29;20236;-71
2023/06/13 08:37:26;;;;;;;3.47;2.72;;;33.00;73.30;;;;;;4916560;29;20232;-72
2023/06/13 08:39:53;;;;;;;3.72;2.65;;;32.20;71.80;;;;;;4916610;29;20232;-71
2023/06/13 08:42:21;;;;;;;6.53;2.72;;;31.40;71.70;;;;;;4916120;29;20604;-71
2023/06/13 08:44:49;;;;;;;3.63;2.00;;;31.20;72.10;;;;;;4916505;29;20213;-71
2023/06/13 08:47:18;;;;;;;6.70;2.90;;;31.20;71.90;;;;;;4916281;29;20214;-71
2023/06/13 08:49:48;;;;;;;3.72;2.40;;;31.50;70.10;;;;;;4916388;29;20296;-71
2023/06/13 08:52:18;;;;;;;4.88;2.53;;;31.80;70.40;;;;;;4915875;29;20218;-71
2023/06/13 08:54:45;;;;;;;3.30;2.50;;;31.40;69.70;;;;;;4916345;29;20213;-71
2023/06/13 08:57:16;;;;;;;3.83;2.50;;;31.80;70.10;;;;;;4915881;29;20232;-72
2023/06/13 08:59:49;;;;;;;3.67;2.28;;;32.30;68.90;;;;;;4916363;29;20232;-72
2023/06/13 09:02:19;;;;;;;4.30;2.90;;;32.30;70.80;;;;;;4916204;29;20621;-71
2023/06/13 09:04:47;;;;;;;3.47;2.38;;;32.10;71.00;;;;;;4916464;29;20673;-72
2023/06/13 09:07:16;;;;;;;5.28;2.50;;;31.70;70.30;;;;;;4916063;29;20215;-72
2023/06/13 09:09:43;;;;;;;3.28;2.50;;;31.30;71.40;;;;;;4915983;29;20340;-74
2023/06/13 09:12:13;;;;;;;4.18;2.72;;;30.60;71.80;;;;;;4917698;29;20213;-74
2023/06/13 09:14:40;;;;;;;3.97;2.67;;;30.40;71.60;;;;;;4919549;29;20563;-76
2023/06/13 09:17:09;;;;;;;3.40;2.70;;;30.70;71.50;;;;;;4919759;29;20236;-76
2023/06/13 09:19:36;;;;;;;4.43;2.85;;;30.80;72.80;;;;;;4919316;29;20264;-76
2023/06/13 09:22:03;;;;;;;6.05;2.22;;;31.00;72.40;;;;;;4914330;29;20217;-78
2023/06/13 09:24:32;;;;;;;3.55;2.60;;;31.10;72.50;;;;;;4917884;29;20305;-76
2023/06/13 09:27:01;;;;;;;3.88;2.63;;;31.40;73.00;;;;;;4917935;29;20289;-77
2023/06/13 09:29:33;;;;;;;3.85;2.45;;;31.50;72.30;;;;;;4917165;29;20245;-75
2023/06/13 09:32:00;;;;;;;3.50;2.80;;;31.00;73.30;;;;;;4917289;29;20206;-74
2023/06/13 09:34:29;;;;;;;4.10;2.75;;;30.10;72.20;;;;;;4916252;29;20209;-74
2023/06/13 09:36:57;;;;;;;2.88;2.58;;;30.20;74.00;;;;;;4917069;29;20224;-74
2023/06/13 09:39:24;;;;;;;4.93;2.40;;;30.20;73.30;;;;;;4917447;29;20248;-72
2023/06/13 09:41:54;;;;;;;4.40;2.78;;;30.50;74.50;;;;;;4917192;29;20573;-76
2023/06/13 09:44:22;;;;;;;3.28;2.35;;;30.80;74.40;;;;;;4916982;29;20205;-74
2023/06/13 09:46:51;;;;;;;3.33;2.60;;;30.60;73.00;;;;;;4918099;29;20236;-74
2023/06/13 09:49:18;;;;;;;4.25;2.80;;;30.50;74.70;;;;;;4917703;29;20280;-79
2023/06/13 09:51:46;;;;;;;10.35;2.63;;;30.40;75.30;;;;;;4916634;29;20224;-73
2023/06/13 09:54:14;;;;;;;4.70;2.70;;;30.30;76.20;;;;;;4916324;29;20297;-78
2023/06/13 09:56:42;;;;;;;3.53;2.67;;;30.40;74.00;;;;;;4917449;29;20292;-79
2023/06/13 09:59:10;;;;;;;3.40;2.38;;;30.60;75.60;;;;;;4916832;29;20244;-81
2023/06/13 10:01:38;;;;;;;6.55;2.80;;;30.80;75.10;;;;;;4917628;29;20257;-82
2023/06/13 10:04:06;;;;;;;6.30;2.95;;;30.00;74.10;;;;;;4918196;29;20210;-76
2023/06/13 10:06:33;;;;;;;7.32;2.70;;;29.70;75.90;;;;;;4916924;29;20292;-79
2023/06/13 10:09:01;;;;;;;4.72;2.78;;;29.50;75.80;;;;;;4910590;29;20316;-74
2023/06/13 10:11:34;;;;;;;3.47;2.58;;;29.80;75.90;;;;;;4906609;29;20292;-74
2023/06/13 10:14:06;;;;;;;6.15;3.00;;;29.80;74.90;;;;;;4916479;29;20213;-75
2023/06/13 10:16:38;;;;;;;2.92;2.53;;;29.20;76.60;;;;;;4916822;29;20217;-76
2023/06/13 10:19:06;;;;;;;5.70;2.83;;;29.00;78.70;;;;;;4916491;29;20320;-77
2023/06/13 10:21:36;;;;;;;4.20;2.85;;;29.10;77.80;;;;;;4916047;29;20661;-76
2023/06/13 10:24:07;;;;;;;2.97;2.47;;;28.90;76.70;;;;;;4915920;29;20573;-76
2023/06/13 10:26:37;;;;;;;5.72;2.88;;;28.70;77.00;;;;;;4916553;29;20617;-76
2023/06/13 10:29:26;;;;;;;3.60;2.60;;;28.40;77.90;;;;;;4915907;29;20229;-74
2023/06/13 10:32:04;;;;;;;4.47;2.85;;;28.50;76.40;;;;;;4916386;29;20257;-80
2023/06/13 10:34:47;;;;;;;4.38;2.55;;;28.60;75.40;;;;;;4916588;29;20214;-76
2023/06/13 10:37:54;;;;;;;3.55;2.47;;;28.30;76.10;;;;;;4916196;29;20582;-72
2023/06/13 10:40:51;;;;;;;3.22;2.50;;;28.40;77.00;;;;;;4915774;29;20201;-73
2023/06/13 10:43:23;;;;;;;3.65;2.33;;;28.50;77.40;;;;;;4897303;29;20301;-75
2023/06/13 10:45:53;;;;;;;5.25;2.95;;;28.40;76.60;;;;;;4899036;29;20519;-74
2023/06/13 10:48:32;;;;;;;8.23;2.50;;;28.20;77.50;;;;;;4898874;29;20234;-73
2023/06/13 10:50:59;;;;;;;3.40;2.30;;;28.20;76.50;;;;;;4898901;29;20696;-74
2023/06/13 10:53:28;;;;;;;6.50;2.38;;;28.20;77.40;;;;;;4899065;29;20305;-75
2023/06/13 10:56:02;;;;;;;3.25;2.50;;;28.50;76.00;;;;;;4898919;29;20215;-73
2023/06/13 10:58:30;;;;;;;3.83;2.40;;;28.50;76.70;;;;;;4898593;29;20232;-73
2023/06/13 11:00:57;;;;;;;6.22;2.45;;;28.50;75.80;;;;;;4898623;29;20624;-74
2023/06/13 11:03:31;;;;;;;4.35;2.50;;;28.50;76.10;;;;;;4898950;29;20245;-73
2023/06/13 11:06:06;;;;;;;3.33;2.22;;;28.50;75.00;;;;;;4898832;29;20210;-74
2023/06/13 11:08:33;;;;;;;4.22;2.60;;;28.40;72.80;;;;;;4898484;29;20234;-74
2023/06/13 11:11:03;;;;;;;4.05;2.42;;;28.40;70.90;;;;;;4898559;29;20242;-74
2023/06/13 11:13:33;;;;;;;4.68;2.40;;;28.30;71.60;;;;;;4898380;29;20573;-73
2023/06/13 11:16:20;;;;;;;3.58;2.38;;;28.30;72.90;;;;;;4898287;29;20206;-73
2023/06/13 11:18:47;;;;;;;3.30;2.15;;;28.10;72.70;;;;;;4898309;29;20238;-74
2023/06/13 11:21:14;;;;;;;3.88;2.58;;;28.10;73.70;;;;;;4898258;29;20217;-73
2023/06/13 11:23:55;;;;;;;3.13;2.22;;;28.10;75.40;;;;;;4898295;29;20578;-73
2023/06/13 11:26:23;;;;;;;3.08;2.20;;;27.80;73.20;;;;;;4898362;29;20206;-74
2023/06/13 11:28:51;;;;;;;3.80;2.50;;;28.00;75.90;;;;;;4897809;29;20229;-73
2023/06/13 11:31:18;;;;;;;3.53;2.22;;;28.10;74.10;;;;;;4897462;29;20268;-75
2023/06/13 11:33:47;;;;;;;3.05;2.20;;;28.00;72.90;;;;;;4897534;29;20207;-74
2023/06/13 11:36:15;;;;;;;2.95;2.15;;;28.00;71.90;;;;;;4897624;29;20217;-74
2023/06/13 11:38:46;;;;;;;3.97;2.50;;;28.00;73.90;;;;;;4897922;29;20567;-74
2023/06/13 11:41:13;;;;;;;6.22;2.45;;;28.10;73.00;;;;;;4897777;29;20321;-75
2023/06/13 11:43:41;;;;;;;3.55;2.63;;;28.30;72.90;;;;;;4898109;29;20573;-74
2023/06/13 11:46:08;;;;;;;2.40;2.08;;;28.40;75.40;;;;;;4898166;29;20217;-73
2023/06/13 11:48:35;;;;;;;3.55;2.60;;;28.50;75.70;;;;;;4897871;29;20245;-73
2023/06/13 11:51:12;;;;;;;3.50;2.30;;;28.50;75.10;;;;;;4897899;29;20735;-73
2023/06/13 11:53:50;;;;;;;3.17;2.30;;;28.20;71.00;;;;;;4897556;29;20712;-74
2023/06/13 11:56:18;;;;;;;5.93;2.55;;;28.20;72.00;;;;;;4898114;29;20253;-74
2023/06/13 11:58:47;;;;;;;3.10;2.15;;;28.30;73.20;;;;;;4897752;29;20238;-73
2023/06/13 12:01:16;;;;;;;3.53;2.25;;;28.20;71.90;;;;;;4897682;29;20573;-73
2023/06/13 12:03:44;;;;;;;3.35;2.50;;;28.30;72.40;;;;;;4897737;29;20305;-74
2023/06/13 12:06:11;;;;;;;3.03;2.40;;;28.40;73.40;;;;;;4898054;29;20217;-73
2023/06/13 12:08:40;;;;;;;3.05;2.15;;;28.30;72.30;;;;;;4897696;29;20321;-74
2023/06/13 12:11:09;;;;;;;3.38;2.45;;;28.30;70.80;;;;;;4897497;29;20724;-74
2023/06/13 12:13:36;;;;;;;3.78;2.60;;;28.10;71.40;;;;;;4897708;29;20245;-78
2023/06/13 12:16:05;;;;;;;4.53;2.50;;;28.20;71.30;;;;;;4897822;29;20211;-74
2023/06/13 12:18:32;;;;;;;3.75;2.67;;;28.20;72.50;;;;;;4897983;29;20250;-76
2023/06/13 12:21:00;;;;;;;8.48;2.30;;;28.20;70.80;;;;;;4898007;29;20581;-77
2023/06/13 12:23:27;;;;;;;4.75;3.45;;;28.10;72.40;;;;;;4897767;29;20218;-76
2023/06/13 12:25:55;;;;;;;7.47;3.10;;;28.10;73.10;;;;;;4897635;29;20210;-77
2023/06/13 12:28:22;;;;;;;3.90;2.60;;;28.30;70.50;;;;;;4897248;29;20701;-83
2023/06/13 12:30:49;;;;;;;3.60;2.42;;;28.30;72.10;;;;;;4897857;29;20245;-78
2023/06/13 12:33:19;;;;;;;4.30;2.90;;;28.40;73.40;;;;;;4897852;29;20214;-75
2023/06/13 12:35:51;;;;;;;3.97;2.85;;;28.50;71.40;;;;;;4897518;29;20217;-80
2023/06/13 12:38:19;;;;;;;3.10;2.65;;;28.50;72.00;;;;;;4897878;29;20234;-74
2023/06/13 12:40:51;;;;;;;4.18;2.78;;;28.30;72.30;;;;;;4897157;29;20222;-74
2023/06/13 12:43:22;;;;;;;3.35;2.30;;;28.40;73.70;;;;;;4897423;29;20269;-69
2023/06/13 12:45:49;;;;;;;3.15;2.70;;;28.80;72.60;;;;;;4897438;29;20210;-68
2023/06/13 12:48:18;;;;;;;2.90;2.28;;;28.90;72.70;;;;;;4900951;29;20234;-69
2023/06/13 12:50:46;;;;;;;3.35;2.40;;;28.70;73.30;;;;;;4901179;29;20244;-68
2023/06/13 12:53:14;;;;;;;4.28;2.67;;;28.50;72.90;;;;;;4901050;29;20665;-69
2023/06/13 12:55:43;;;;;;;3.72;2.58;;;28.50;74.10;;;;;;4901151;29;20206;-68
2023/06/13 12:58:30;;;;;;;3.40;2.55;;;28.70;74.20;;;;;;4900737;29;20258;-68
2023/06/13 13:00:58;;;;;;;3.60;2.90;;;28.70;73.70;;;;;;4919686;29;20208;-68
2023/06/13 13:03:27;;;;;;;4.88;2.65;;;28.80;75.60;;;;;;4919761;29;20274;-72
2023/06/13 13:05:54;;;;;;;3.65;2.53;;;28.90;74.60;;;;;;4918890;29;20210;-72
2023/06/13 13:08:22;;;;;;;4.07;2.60;;;28.90;73.70;;;;;;4918679;29;20229;-75
2023/06/13 13:10:49;;;;;;;3.70;3.00;;;29.00;72.80;;;;;;4919659;29;20320;-74
2023/06/13 13:13:16;;;;;;;3.60;2.63;;;28.90;73.50;;;;;;4919316;29;20743;-74
2023/06/13 13:15:43;;;;;;;3.72;2.75;;;28.90;73.60;;;;;;4919205;29;20300;-74
2023/06/13 13:18:10;;;;;;;7.40;2.92;;;28.90;72.80;;;;;;4919389;29;20225;-74
2023/06/13 13:20:39;;;;;;;2.97;2.38;;;28.70;73.80;;;;;;4918656;29;20210;-74
2023/06/13 13:23:06;;;;;;;3.58;2.65;;;28.80;74.40;;;;;;4919286;29;20261;-75
2023/06/13 13:25:33;;;;;;;5.80;2.83;;;28.80;74.30;;;;;;4915478;29;20213;-72
2023/06/13 13:28:00;;;;;;;4.63;2.90;;;29.10;74.40;;;;;;4917688;29;20278;-69
2023/06/13 13:30:28;;;;;;;3.65;2.80;;;29.00;73.90;;;;;;4917268;29;20237;-69
2023/06/13 13:32:55;;;;;;;3.10;2.80;;;28.70;73.90;;;;;;4916666;29;20210;-70
2023/06/13 13:35:22;;;;;;;5.22;2.80;;;28.60;73.90;;;;;;4917220;29;20217;-69
2023/06/13 13:37:50;;;;;;;5.90;2.70;;;28.60;74.10;;;;;;4917566;29;20238;-73
2023/06/13 13:40:17;;;;;;;3.63;2.55;;;28.70;74.40;;;;;;4916991;29;20213;-71
2023/06/13 13:42:45;;;;;;;3.53;2.67;;;29.00;75.20;;;;;;4916972;29;20217;-70
2023/06/13 13:45:12;;;;;;;3.22;2.58;;;29.10;75.80;;;;;;4917491;29;20561;-73
2023/06/13 13:47:38;;;;;;;3.20;2.60;;;29.10;75.10;;;;;;4917090;29;20316;-71
2023/06/13 13:50:07;;;;;;;4.75;2.53;;;28.90;74.20;;;;;;4917434;29;20201;-71
2023/06/13 13:52:34;;;;;;;4.55;3.00;;;28.80;74.10;;;;;;4917423;29;20217;-70
2023/06/13 13:55:03;;;;;;;4.20;2.47;;;28.80;72.50;;;;;;4916734;29;20296;-73
2023/06/13 13:57:30;;;;;;;4.65;2.88;;;28.70;71.90;;;;;;4917289;29;20256;-74
2023/06/13 13:59:57;;;;;;;3.65;2.58;;;28.60;69.70;;;;;;4917256;29;20877;-72
2023/06/13 14:02:25;;;;;;;4.03;2.50;;;28.60;70.40;;;;;;4917185;29;20220;-71
2023/06/13 14:04:52;;;;;;;4.05;2.40;;;28.90;71.80;;;;;;4917412;29;20213;-74
2023/06/13 14:07:19;;;;;;;3.80;2.47;;;29.00;71.10;;;;;;4916928;29;20300;-69
2023/06/13 14:09:45;;;;;;;3.30;2.33;;;28.80;71.30;;;;;;4916715;29;20308;-73
2023/06/13 14:12:14;;;;;;;3.42;2.53;;;28.70;69.40;;;;;;4916945;29;20252;-69
2023/06/13 14:14:41;;;;;;;4.57;2.22;;;28.70;71.20;;;;;;4916978;29;20220;-71
2023/06/13 14:17:07;;;;;;;11.35;2.72;;;28.90;70.30;;;;;;4916888;29;20252;-71
2023/06/13 14:19:35;;;;;;;2.78;2.20;;;28.80;70.90;;;;;;4917120;29;20284;-73
2023/06/13 14:22:02;;;;;;;3.80;2.70;;;28.90;69.30;;;;;;4917109;29;20218;-70
2023/06/13 14:24:29;;;;;;;3.70;2.40;;;28.90;69.20;;;;;;4916137;29;20202;-74
2023/06/13 14:26:56;;;;;;;3.10;2.08;;;29.00;68.90;;;;;;4916437;29;20669;-73
2023/06/13 14:29:25;;;;;;;3.63;2.47;;;28.80;69.10;;;;;;4916331;29;20320;-71
2023/06/13 14:31:51;;;;;;;3.78;2.38;;;28.60;70.60;;;;;;4916132;29;20741;-70
2023/06/13 14:34:18;;;;;;;3.17;2.42;;;28.50;69.20;;;;;;4916626;29;20214;-71
2023/06/13 14:36:47;;;;;;;3.60;2.13;;;28.50;71.00;;;;;;4916575;29;20365;-72
2023/06/13 14:39:14;;;;;;;3.63;2.40;;;28.40;69.90;;;;;;4916134;29;20337;-76
2023/06/13 14:41:41;;;;;;;2.50;2.05;;;28.40;69.90;;;;;;4912993;29;20220;-71
2023/06/13 14:44:07;;;;;;;4.18;2.50;;;28.40;70.20;;;;;;4916503;29;20269;-71
2023/06/13 14:46:36;;;;;;;3.63;2.35;;;28.40;68.70;;;;;;4915518;29;20532;-72
2023/06/13 14:49:02;;;;;;;3.25;2.53;;;28.50;70.70;;;;;;4916214;29;20319;-73
2023/06/13 14:51:30;;;;;;;3.55;2.50;;;28.60;69.00;;;;;;4916139;29;20712;-72
2023/06/13 14:53:57;;;;;;;5.82;2.30;;;28.50;69.40;;;;;;4915888;29;20642;-71
2023/06/13 14:56:24;;;;;;;4.10;2.30;;;28.30;69.50;;;;;;4915422;29;20221;-72
2023/06/13 14:58:51;;;;;;;3.00;2.00;;;28.30;68.20;;;;;;4915757;29;20226;-72
2023/06/13 15:01:19;;;;;;;4.10;2.00;;;28.30;69.50;;;;;;4915264;29;20987;-72
2023/06/13 15:03:49;;;;;;;4.28;2.22;;;28.40;70.40;;;;;;4915839;29;20241;-72
2023/06/13 15:06:18;;;;;;;6.63;2.22;;;28.50;70.50;;;;;;4915911;29;20672;-72
2023/06/13 15:08:45;;;;;;;2.95;2.28;;;28.40;70.00;;;;;;4914938;29;20801;-73
2023/06/13 15:11:12;;;;;;;2.55;2.10;;;28.20;67.90;;;;;;4915939;29;20333;-73
2023/06/13 15:13:39;;;;;;;3.63;2.42;;;28.20;68.80;;;;;;4915664;29;20723;-71
2023/06/13 15:16:07;;;;;;;4.20;2.20;;;28.00;69.50;;;;;;4914910;29;20573;-70
2023/06/13 15:18:36;;;;;;;2.58;2.15;;;28.10;69.50;;;;;;4915200;29;20237;-73
2023/06/13 15:21:05;;;;;;;6.03;2.50;;;28.10;68.80;;;;;;4915597;29;20228;-72
2023/06/13 15:23:32;;;;;;;3.97;2.22;;;28.20;68.20;;;;;;4915257;29;20230;-71
2023/06/13 15:25:59;;;;;;;2.70;2.03;;;28.30;68.70;;;;;;4914939;29;20226;-73
2023/06/13 15:28:27;;;;;;;4.43;2.30;;;28.10;67.60;;;;;;4915547;29;20318;-72
2023/06/13 15:30:54;;;;;;;3.53;2.10;;;28.20;68.60;;;;;;4915922;29;20240;-72
2023/06/13 15:33:23;;;;;;;2.45;2.03;;;28.20;68.70;;;;;;4916550;29;20209;-74
2023/06/13 15:35:50;;;;;;;3.72;2.03;;;28.10;68.60;;;;;;4912983;29;20214;-71
2023/06/13 15:38:19;;;;;;;2.28;1.92;;;28.00;67.80;;;;;;4915430;29;20244;-71
2023/06/13 15:40:46;;;;;;;3.97;2.30;;;28.10;68.80;;;;;;4915545;29;20224;-73
2023/06/13 15:43:12;;;;;;;3.80;2.17;;;28.00;67.70;;;;;;4914937;29;20324;-70
2023/06/13 15:45:39;;;;;;;4.38;2.30;;;28.00;68.10;;;;;;4914929;29;20755;-71
2023/06/13 15:48:07;;;;;;;3.42;2.00;;;28.10;66.80;;;;;;4915492;29;20320;-71
2023/06/13 15:50:34;;;;;;;3.65;2.15;;;28.00;68.90;;;;;;4915078;29;20221;-71
2023/06/13 15:53:02;;;;;;;2.88;2.20;;;28.00;69.50;;;;;;4914984;29;20225;-72
2023/06/13 15:55:30;;;;;;;3.10;1.75;;;28.00;69.60;;;;;;4915343;29;20240;-70
2023/06/13 15:57:57;;;;;;;3.33;2.20;;;27.90;67.40;;;;;;4915520;29;20236;-70
2023/06/13 16:00:24;;;;;;;3.13;1.92;;;27.90;68.00;;;;;;4916526;29;20209;-73
2023/06/13 16:02:50;;;;;;;2.65;2.08;;;27.70;68.50;;;;;;4916666;29;20580;-73
2023/06/13 16:05:17;;;;;;;3.15;2.03;;;27.70;69.10;;;;;;4916535;29;20212;-70
2023/06/13 16:07:44;;;;;;;4.60;2.22;;;27.90;69.10;;;;;;4916186;29;20240;-70
2023/06/13 16:10:11;;;;;;;4.10;2.00;;;28.00;69.10;;;;;;4916283;29;21252;-70
2023/06/13 16:12:39;;;;;;;2.92;1.98;;;27.90;67.60;;;;;;4915835;29;20693;-72
2023/06/13 16:15:07;;;;;;;3.13;2.13;;;27.80;67.30;;;;;;4916107;29;20248;-73
2023/06/13 16:17:34;;;;;;;4.47;2.08;;;27.90;67.20;;;;;;4916105;29;20248;-73
2023/06/13 16:20:01;;;;;;;4.93;2.20;;;28.00;67.40;;;;;;4916440;29;20205;-73
2023/06/13 16:22:28;;;;;;;3.22;2.08;;;28.10;68.00;;;;;;4918983;29;20209;-70
2023/06/13 16:24:55;;;;;;;3.58;2.20;;;28.20;67.20;;;;;;4920565;29;20205;-70
2023/06/13 16:27:22;;;;;;;2.83;2.30;;;28.00;68.20;;;;;;4920350;29;20304;-70
2023/06/13 16:29:51;;;;;;;2.65;2.20;;;27.70;69.10;;;;;;4920221;29;20305;-71
2023/06/13 16:32:17;;;;;;;3.60;2.17;;;27.60;69.80;;;;;;4919832;29;20331;-73
2023/06/13 16:34:44;;;;;;;3.78;2.22;;;27.60;69.30;;;;;;4920302;29;20303;-70
2023/06/13 16:37:12;;;;;;;2.92;2.08;;;27.50;68.40;;;;;;4920078;29;20577;-72
2023/06/13 16:39:38;;;;;;;2.40;1.98;;;27.40;68.50;;;;;;4920039;29;20300;-70
2023/06/13 16:42:07;;;;;;;3.95;1.90;;;27.40;68.80;;;;;;4919741;29;20309;-74
2023/06/13 16:44:34;;;;;;;3.90;2.10;;;27.40;69.10;;;;;;4919733;29;20210;-74
2023/06/13 16:47:04;;;;;;;2.78;2.05;;;27.40;69.30;;;;;;4919931;29;20234;-73
2023/06/13 16:49:31;;;;;;;2.63;2.05;;;27.50;70.20;;;;;;4919759;29;20260;-73
2023/06/13 16:51:58;;;;;;;3.10;2.40;;;27.50;70.30;;;;;;4919630;29;20320;-73
2023/06/13 16:54:25;;;;;;;2.92;2.22;;;27.50;70.30;;;;;;4919564;29;20212;-73
2023/06/13 16:56:51;;;;;;;3.13;2.20;;;27.50;70.20;;;;;;4919551;29;20304;-73
2023/06/13 16:59:19;;;;;;;3.65;2.17;;;27.60;70.80;;;;;;4919646;29;20233;-74
2023/06/13 17:01:45;;;;;;;2.10;1.90;;;27.50;70.60;;;;;;4919685;29;20213;-73
2023/06/13 17:04:14;;;;;;;3.35;2.17;;;27.60;70.20;;;;;;4919618;29;20582;-73
2023/06/13 17:06:41;;;;;;;2.78;2.10;;;27.50;69.30;;;;;;4919310;29;20225;-73
2023/06/13 17:09:07;;;;;;;2.58;2.08;;;27.50;69.90;;;;;;4918133;29;20574;-69
2023/06/13 17:11:34;;;;;;;3.45;2.10;;;27.60;69.80;;;;;;4919437;29;20237;-71
2023/06/13 17:14:02;;;;;;;2.63;2.15;;;27.50;70.00;;;;;;4919101;29;20261;-71
2023/06/13 17:16:29;;;;;;;3.78;2.80;;;27.40;69.40;;;;;;4918332;29;20424;-72
2023/06/13 17:18:56;;;;;;;2.67;2.20;;;27.30;69.10;;;;;;4913509;29;20712;-73
2023/06/13 17:21:24;;;;;;;2.97;2.13;;;27.30;70.80;;;;;;4916593;29;20224;-73
2023/06/13 17:23:51;;;;;;;3.40;2.08;;;27.30;70.70;;;;;;4917781;29;20265;-76
2023/06/13 17:26:18;;;;;;;4.18;2.15;;;27.30;72.00;;;;;;4916908;29;20215;-74
2023/06/13 17:28:45;;;;;;;2.22;1.95;;;27.30;71.20;;;;;;4918054;29;20237;-72
2023/06/13 17:31:12;;;;;;;5.30;2.20;;;27.40;70.10;;;;;;4918488;29;20292;-70
2023/06/13 17:33:39;;;;;;;5.60;2.55;;;27.40;70.10;;;;;;4918061;29;20212;-68
2023/06/13 17:36:07;;;;;;;3.55;2.40;;;27.30;70.70;;;;;;4918713;29;20208;-69
2023/06/13 17:38:35;;;;;;;3.10;2.47;;;27.30;71.90;;;;;;4918874;29;20743;-69
2023/06/13 17:41:03;;;;;;;3.35;2.20;;;27.20;70.50;;;;;;4918314;29;20221;-70
2023/06/13 17:43:30;;;;;;;3.13;2.40;;;27.10;70.00;;;;;;4918968;29;20282;-70
2023/06/13 17:45:57;;;;;;;5.20;2.80;;;27.10;71.00;;;;;;4918828;29;20206;-71
2023/06/13 17:48:24;;;;;;;3.05;2.25;;;27.10;71.40;;;;;;4918590;29;20226;-70
2023/06/13 17:50:51;;;;;;;3.30;2.20;;;27.10;71.60;;;;;;4921663;29;20216;-73
2023/06/13 17:53:18;;;;;;;3.75;2.78;;;27.10;70.40;;;;;;4937353;29;20606;-72
2023/06/13 17:55:46;;;;;;;4.72;2.58;;;27.10;71.20;;;;;;4937345;29;20382;-71
2023/06/13 17:58:14;;;;;;;4.43;2.72;;;27.10;72.00;;;;;;4937018;29;20711;-73
2023/06/13 18:00:41;;;;;;;6.05;2.60;;;27.10;72.20;;;;;;4923967;29;20206;-71
2023/06/13 18:03:07;;;;;;;5.10;2.72;;;27.00;71.40;;;;;;4918263;29;20261;-71
2023/06/13 18:05:34;;;;;;;3.83;2.85;;;27.00;72.20;;;;;;4918182;29;20209;-71
2023/06/13 18:08:01;;;;;;;4.80;2.40;;;26.90;71.80;;;;;;4917950;29;20739;-73
2023/06/13 18:10:28;;;;;;;4.95;2.55;;;26.90;72.60;;;;;;4917882;29;20216;-71
2023/06/13 18:12:56;;;;;;;5.68;2.20;;;26.90;70.80;;;;;;4916127;29;20230;-71
2023/06/13 18:15:23;;;;;;;3.97;2.35;;;26.80;70.80;;;;;;4912103;29;20209;-71
2023/06/13 18:17:51;;;;;;;3.97;2.55;;;26.70;72.10;;;;;;4916281;29;20255;-72
2023/06/13 18:20:17;;;;;;;4.60;2.55;;;26.70;71.80;;;;;;4915799;29;20649;-71
2023/06/13 18:22:44;;;;;;;3.70;2.58;;;26.70;72.40;;;;;;4915937;29;20296;-72
2023/06/13 18:25:11;;;;;;;3.85;2.33;;;26.70;72.60;;;;;;4916376;29;20214;-72
2023/06/13 18:27:38;;;;;;;4.93;2.60;;;26.60;72.80;;;;;;4916757;29;20255;-74
2023/06/13 18:30:08;;;;;;;4.78;2.42;;;26.50;72.80;;;;;;4915849;29;20209;-72
2023/06/13 18:32:35;;;;;;;5.50;2.25;;;26.50;73.40;;;;;;4916632;29;20237;-72
2023/06/13 18:35:02;;;;;;;2.97;2.42;;;26.50;73.30;;;;;;4909213;29;20225;-71
2023/06/13 18:37:29;;;;;;;4.20;2.33;;;26.40;73.80;;;;;;4916465;29;20233;-72
2023/06/13 18:39:56;;;;;;;4.32;2.20;;;26.30;74.40;;;;;;4917776;29;20707;-73
2023/06/13 18:42:23;;;;;;;3.15;2.53;;;26.20;74.30;;;;;;4917801;29;20217;-72
2023/06/13 18:44:50;;;;;;;3.95;2.55;;;26.20;74.80;;;;;;4917479;29;20241;-72
2023/06/13 18:47:19;;;;;;;3.55;2.33;;;26.10;74.90;;;;;;4917686;29;20301;-72
2023/06/13 18:49:46;;;;;;;3.00;2.20;;;26.10;75.30;;;;;;4917624;29;20206;-72
2023/06/13 18:52:13;;;;;;;2.97;2.38;;;26.10;74.90;;;;;;4917897;29;20244;-72
2023/06/13 18:54:40;;;;;;;4.07;2.45;;;26.00;75.10;;;;;;4918114;29;20220;-72
2023/06/13 18:57:07;;;;;;;4.45;2.80;;;26.00;75.20;;;;;;4917696;29;20571;-72
2023/06/13 18:59:34;;;;;;;6.15;2.75;;;26.00;75.20;;;;;;4917932;29;20550;-72
2023/06/13 19:02:01;;;;;;;3.60;2.35;;;26.10;75.20;;;;;;4917816;29;20222;-72
2023/06/13 19:04:30;;;;;;;3.58;2.10;;;25.90;75.30;;;;;;4917859;29;20245;-72
2023/06/13 19:06:57;;;;;;;3.53;2.42;;;25.90;75.00;;;;;;4917513;29;20220;-72
2023/06/13 19:09:23;;;;;;;3.35;2.33;;;25.70;75.30;;;;;;4917426;29;20321;-72
2023/06/13 19:11:50;;;;;;;5.43;2.50;;;25.60;76.00;;;;;;4917146;29;20205;-73
2023/06/13 19:14:17;;;;;;;3.03;2.03;;;25.70;76.20;;;;;;4917140;29;20248;-72
2023/06/13 19:16:44;;;;;;;4.30;2.53;;;25.70;75.80;;;;;;4916937;29;20292;-71
2023/06/13 19:19:11;;;;;;;6.15;2.90;;;25.60;75.70;;;;;;4917096;29;20265;-72
2023/06/13 19:21:41;;;;;;;3.70;2.35;;;25.80;76.00;;;;;;4917262;29;20341;-72
2023/06/13 19:24:09;;;;;;;3.28;2.50;;;25.70;77.00;;;;;;4917242;29;20213;-71
2023/06/13 19:26:39;;;;;;;3.50;2.88;;;25.70;76.80;;;;;;4917318;29;20237;-70
2023/06/13 19:29:06;;;;;;;5.78;2.47;;;25.60;76.20;;;;;;4916944;29;20233;-72
2023/06/13 19:31:33;;;;;;;3.30;2.38;;;25.50;78.00;;;;;;4917145;29;20308;-73
2023/06/13 19:34:00;;;;;;;5.30;2.45;;;25.40;77.70;;;;;;4917197;29;20241;-73